Time;durP1;ratioP1;P1;durP2;ratioP2;P2;SDS_P1;SDS_P2;PMS_P1;PMS_P2;Temp;Humidity;BMP_temperature;BMP_pressure;BME280_temperature;BME280_humidity;BME280_pressure;Samples;Min_cycle;Max_cycle;Signal;HPM_P1;HPM_P2
2023/01/23 00:00:33;;;;;;;11.47;6.17;;;;;;;-145.69;100.00;52717.69;5115263;28;20209;-78
2023/01/23 00:03:00;;;;;;;11.03;5.60;;;;;;;-145.69;100.00;52719.66;5114918;28;20204;-79
2023/01/23 00:05:26;;;;;;;10.60;5.13;;;;;;;-145.69;100.00;52697.88;5115025;28;20209;-78
2023/01/23 00:07:53;;;;;;;9.50;5.33;;;;;;;-145.69;100.00;52715.72;5115290;28;20197;-79
2023/01/23 00:10:20;;;;;;;12.37;5.50;;;;;;;-145.69;100.00;52711.75;5115171;28;20223;-79
2023/01/23 00:12:47;;;;;;;11.83;6.10;;;;;;;-145.69;100.00;52674.13;5115227;28;20204;-78
2023/01/23 00:15:15;;;;;;;13.23;6.40;;;;;;;-145.69;100.00;52705.81;5114869;28;20221;-78
2023/01/23 00:17:44;;;;;;;15.00;7.13;;;;;;;-145.69;100.00;52717.69;5114638;28;20203;-79
2023/01/23 00:20:12;;;;;;;13.20;6.13;;;;;;;-145.69;100.00;52755.31;5114222;28;20209;-78
2023/01/23 00:22:39;;;;;;;15.73;6.67;;;;;;;-145.69;100.00;52705.81;5114585;28;20559;-78
2023/01/23 00:25:06;;;;;;;12.93;7.07;;;;;;;-145.69;100.00;52711.75;5114510;28;20198;-78
2023/01/23 00:27:33;;;;;;;12.23;6.27;;;;;;;-145.69;100.00;52729.56;5114955;28;20198;-78
2023/01/23 00:30:00;;;;;;;14.53;6.93;;;;;;;-145.69;100.00;52693.94;5114657;28;20575;-78
2023/01/23 00:32:28;;;;;;;10.77;6.10;;;;;;;-145.69;100.00;52701.84;5114452;28;20197;-79
2023/01/23 00:34:54;;;;;;;10.97;6.47;;;;;;;-145.69;100.00;52697.88;5114587;28;20205;-78
2023/01/23 00:37:21;;;;;;;11.53;5.73;;;;;;;-145.69;100.00;52739.47;5114764;28;20201;-79
2023/01/23 00:39:49;;;;;;;11.53;6.00;;;;;;;-145.69;100.00;52701.84;5114527;28;20197;-79
2023/01/23 00:42:16;;;;;;;12.93;6.60;;;;;;;-145.69;100.00;52691.94;5114526;28;20301;-79
2023/01/23 00:44:42;;;;;;;11.00;5.90;;;;;;;-145.69;100.00;52721.66;5114287;28;20592;-79
2023/01/23 00:47:10;;;;;;;11.77;6.13;;;;;;;-145.69;100.00;52687.97;5114072;28;20201;-79
2023/01/23 00:49:37;;;;;;;13.63;6.50;;;;;;;-145.69;100.00;52717.69;5114357;28;20193;-79
2023/01/23 00:52:03;;;;;;;12.23;6.17;;;;;;;-145.69;100.00;52697.88;5114021;28;20197;-79
2023/01/23 00:54:30;;;;;;;11.73;6.53;;;;;;;-145.69;100.00;52703.81;5114393;28;20197;-79
2023/01/23 00:56:56;;;;;;;13.50;6.57;;;;;;;-145.69;100.00;52727.59;5114046;28;20315;-79
2023/01/23 00:59:23;;;;;;;15.33;7.63;;;;;;;-145.69;100.00;52727.59;5114264;28;20204;-78
2023/01/23 01:01:50;;;;;;;13.47;7.13;;;;;;;-145.69;100.00;52737.50;5114091;28;20201;-79
2023/01/23 01:04:18;;;;;;;16.75;9.60;;;;;;;-145.69;100.00;52741.47;5113494;28;20435;-79
2023/01/23 01:06:44;;;;;;;17.23;9.00;;;;;;;-145.69;100.00;52672.13;5114192;28;20201;-79
2023/01/23 01:09:11;;;;;;;16.80;8.47;;;;;;;-145.69;100.00;52656.28;5114316;28;20202;-79
2023/01/23 01:11:38;;;;;;;17.30;9.07;;;;;;;-145.69;100.00;52721.66;5113988;28;20193;-78
2023/01/23 01:14:05;;;;;;;17.60;8.40;;;;;;;-145.69;100.00;52705.81;5113836;28;20202;-78
2023/01/23 01:16:31;;;;;;;19.33;9.17;;;;;;;-145.69;100.00;52725.63;5102366;28;20225;-78
2023/01/23 01:18:58;;;;;;;16.70;8.87;;;;;;;-145.69;100.00;52729.56;5113676;28;20193;-78
2023/01/23 01:21:26;;;;;;;17.73;9.37;;;;;;;-145.69;100.00;52731.56;5113810;28;20197;-79
2023/01/23 01:23:52;;;;;;;20.50;9.10;;;;;;;-145.69;100.00;52707.78;5113694;28;20209;-79
2023/01/23 01:26:21;;;;;;;16.47;8.53;;;;;;;-145.69;100.00;52733.53;5113581;28;20197;-78
2023/01/23 01:28:49;;;;;;;17.93;9.37;;;;;;;-145.69;100.00;52662.22;5113145;28;20197;-79
2023/01/23 01:31:16;;;;;;;20.33;9.37;;;;;;;-145.69;100.00;52705.81;5112955;28;20201;-79
2023/01/23 01:33:44;;;;;;;19.40;8.87;;;;;;;-145.69;100.00;52697.88;5113237;28;20199;-79
2023/01/23 01:36:12;;;;;;;17.10;9.03;;;;;;;-145.69;100.00;52735.50;5113357;28;20232;-79
2023/01/23 01:38:40;;;;;;;16.23;8.30;;;;;;;-145.69;100.00;52713.72;5113585;28;20198;-79
2023/01/23 01:41:08;;;;;;;16.87;8.73;;;;;;;-145.69;100.00;52705.81;5113348;28;20208;-78
2023/01/23 01:43:34;;;;;;;18.27;8.40;;;;;;;-145.69;100.00;52705.81;5113567;28;20224;-78
2023/01/23 01:46:11;;;;;;;16.63;7.90;;;;;;;-145.69;100.00;52709.78;5113472;28;20229;-78
2023/01/23 01:48:44;;;;;;;21.93;8.90;;;;;;;-145.69;100.00;52725.63;5110239;28;20190;-78
2023/01/23 01:51:16;;;;;;;18.63;8.40;;;;;;;-145.69;100.00;52689.97;5113174;28;20207;-78
2023/01/23 01:53:47;;;;;;;15.60;7.57;;;;;;;-145.69;100.00;52678.09;5113181;28;20287;-78
2023/01/23 01:56:14;;;;;;;13.50;7.40;;;;;;;-145.69;100.00;52709.78;5113473;28;20217;-77
2023/01/23 01:58:43;;;;;;;14.80;8.03;;;;;;;-145.69;100.00;52709.78;5113302;28;20198;-78
2023/01/23 02:01:09;;;;;;;16.27;7.90;;;;;;;-145.69;100.00;52717.69;5113094;28;20201;-78
2023/01/23 02:03:36;;;;;;;14.07;7.37;;;;;;;-145.69;100.00;52680.06;5113130;28;20656;-78
2023/01/23 02:06:04;;;;;;;15.57;7.67;;;;;;;-145.69;100.00;52715.72;5113143;28;20200;-78
2023/01/23 02:08:35;;;;;;;14.03;7.43;;;;;;;-145.69;100.00;52707.78;5113242;28;20204;-78
2023/01/23 02:11:04;;;;;;;13.93;7.67;;;;;;;-145.69;100.00;52715.72;5113329;28;20564;-78
2023/01/23 02:13:34;;;;;;;14.07;6.90;;;;;;;-145.69;100.00;52711.75;5113183;28;20208;-78
2023/01/23 02:16:04;;;;;;;14.37;7.17;;;;;;;-145.69;100.00;52709.78;5113188;28;20235;-78
2023/01/23 02:18:32;;;;;;;14.70;7.00;;;;;;;-145.69;100.00;52723.63;5112410;28;20197;-78
2023/01/23 02:21:04;;;;;;;12.90;6.80;;;;;;;-145.69;100.00;52697.88;5112379;28;20204;-78
2023/01/23 02:23:42;;;;;;;12.30;6.03;;;;;;;-145.69;100.00;52713.72;5113143;28;20198;-78
2023/01/23 02:26:14;;;;;;;12.73;6.60;;;;;;;-145.69;100.00;52670.16;5113027;28;20205;-78
2023/01/23 02:28:42;;;;;;;10.73;5.43;;;;;;;-145.69;100.00;52725.63;5112734;28;20201;-77
2023/01/23 02:31:10;;;;;;;11.37;5.77;;;;;;;-145.69;100.00;52743.44;5112915;28;20201;-77
2023/01/23 02:33:48;;;;;;;10.73;5.33;;;;;;;-145.69;100.00;52701.84;5113110;28;20205;-77
2023/01/23 02:36:17;;;;;;;10.97;5.73;;;;;;;-145.69;100.00;52719.66;5113020;28;20224;-77
2023/01/23 02:38:51;;;;;;;9.47;5.30;;;;;;;-145.69;100.00;52709.78;5112722;28;20194;-78
2023/01/23 02:41:25;;;;;;;9.77;4.83;;;;;;;-145.69;100.00;52703.81;5112871;28;20198;-77
2023/01/23 02:43:59;;;;;;;9.83;5.07;;;;;;;-145.69;100.00;52713.72;5112997;28;20206;-77
2023/01/23 02:46:29;;;;;;;9.57;4.80;;;;;;;-145.69;100.00;52725.63;5115504;28;20198;-78
2023/01/23 02:48:55;;;;;;;9.40;4.60;;;;;;;-145.69;100.00;52682.03;5116493;28;20197;-77
2023/01/23 02:51:23;;;;;;;9.63;4.90;;;;;;;-145.69;100.00;52682.03;5116797;28;20193;-77
2023/01/23 02:53:52;;;;;;;10.63;5.43;;;;;;;-145.69;100.00;52701.84;5116465;28;20205;-77
2023/01/23 02:56:20;;;;;;;10.13;5.33;;;;;;;-145.69;100.00;52705.81;5116599;28;20229;-78
2023/01/23 03:01:34;;;;;;;9.07;4.60;;;;;;;-145.69;100.00;52721.66;5116547;28;20259;-78
2023/01/23 03:04:03;;;;;;;9.53;5.23;;;;;;;-145.69;100.00;52678.09;5116481;28;20209;-77
2023/01/23 03:06:34;;;;;;;10.10;5.47;;;;;;;-145.69;100.00;52705.81;5115865;28;20194;-78
2023/01/23 03:09:04;;;;;;;9.57;4.90;;;;;;;-145.69;100.00;52725.63;5111747;28;20228;-78
2023/01/23 03:11:42;;;;;;;8.83;5.07;;;;;;;-145.69;100.00;52735.50;5116136;28;20201;-78
2023/01/23 03:14:11;;;;;;;8.93;4.50;;;;;;;-145.69;100.00;52697.88;5116239;27;20202;-78
2023/01/23 03:16:39;;;;;;;9.97;4.70;;;;;;;-145.69;100.00;52709.78;5115911;28;20217;-79
2023/01/23 03:19:10;;;;;;;7.90;4.50;;;;;;;-145.69;100.00;52699.88;5115753;28;20651;-79
2023/01/23 03:21:39;;;;;;;7.57;4.17;;;;;;;-145.69;100.00;52682.03;5116238;28;20197;-79
2023/01/23 03:24:07;;;;;;;7.80;4.47;;;;;;;-145.69;100.00;52672.13;5116147;28;20659;-78
2023/01/23 03:26:38;;;;;;;6.80;3.93;;;;;;;-145.69;100.00;52705.81;5115891;28;20236;-78
2023/01/23 03:31:50;;;;;;;6.30;3.77;;;;;;;-145.69;100.00;52721.66;5115955;28;20189;-79
2023/01/23 03:34:17;;;;;;;7.37;4.20;;;;;;;-145.69;100.00;52711.75;5115223;28;20740;-78
2023/01/23 03:36:46;;;;;;;6.90;3.67;;;;;;;-145.69;100.00;52739.47;5115907;28;20225;-79
2023/01/23 03:41:58;;;;;;;6.23;3.33;;;;;;;-145.69;100.00;52693.94;5115840;28;20201;-79
2023/01/23 03:44:25;;;;;;;5.97;3.27;;;;;;;-145.69;100.00;52727.59;5115526;28;20312;-78
2023/01/23 03:46:51;;;;;;;5.50;3.07;;;;;;;-145.69;100.00;52693.94;5115218;28;20279;-78
2023/01/23 03:49:19;;;;;;;7.43;3.10;;;;;;;-145.69;100.00;52686.00;5115526;28;20189;-78
2023/01/23 03:51:48;;;;;;;6.50;3.33;;;;;;;-145.69;100.00;52691.94;5115268;28;20266;-78
2023/01/23 03:54:14;;;;;;;4.43;2.77;;;;;;;-145.69;100.00;52684.03;5115430;28;20288;-78
2023/01/23 03:56:42;;;;;;;5.70;3.30;;;;;;;-145.69;100.00;52707.78;5114529;28;20236;-79
2023/01/23 03:59:10;;;;;;;6.83;3.13;;;;;;;-145.69;100.00;52689.97;5115489;28;20225;-79
2023/01/23 04:01:37;;;;;;;5.20;3.20;;;;;;;-145.69;100.00;52707.78;5115438;28;20258;-78
2023/01/23 04:04:04;;;;;;;5.27;3.30;;;;;;;-145.69;100.00;52701.84;5115386;28;20197;-79
2023/01/23 04:06:31;;;;;;;5.87;3.03;;;;;;;-145.69;100.00;52693.94;5115100;28;20202;-78
2023/01/23 04:09:09;;;;;;;4.30;2.73;;;;;;;-145.69;100.00;52703.81;5114612;28;20200;-78
2023/01/23 04:11:36;;;;;;;5.20;3.00;;;;;;;-145.69;100.00;52717.69;5105859;28;20221;-78
2023/01/23 04:14:02;;;;;;;4.40;2.87;;;;;;;-145.69;100.00;52686.00;5115182;28;20205;-78
2023/01/23 04:16:34;;;;;;;5.33;3.30;;;;;;;-145.69;100.00;52713.72;5114933;28;20290;-79
2023/01/23 04:19:01;;;;;;;5.70;3.23;;;;;;;-145.69;100.00;52682.03;5114506;28;20652;-78
2023/01/23 04:21:27;;;;;;;4.73;2.93;;;;;;;-145.69;100.00;52699.88;5114481;28;20197;-79
2023/01/23 04:23:56;;;;;;;4.53;2.90;;;;;;;-145.69;100.00;52715.72;5115255;28;20208;-78
2023/01/23 04:26:23;;;;;;;4.23;2.87;;;;;;;-145.69;100.00;52705.81;5114727;28;20233;-79
2023/01/23 04:28:52;;;;;;;5.93;3.20;;;;;;;-145.69;100.00;52699.88;5114626;28;20202;-79
2023/01/23 04:31:18;;;;;;;5.73;3.03;;;;;;;-145.69;100.00;52682.03;5114718;28;20289;-79
2023/01/23 04:33:50;;;;;;;4.53;2.83;;;;;;;-145.69;100.00;52715.72;5114672;28;20677;-79
2023/01/23 04:36:17;;;;;;;5.30;3.47;;;;;;;-145.69;100.00;52729.56;5114511;28;20222;-79
2023/01/23 04:38:43;;;;;;;6.77;3.57;;;;;;;-145.69;100.00;52676.09;5114535;27;20194;-79
2023/01/23 04:41:14;;;;;;;4.70;3.00;;;;;;;-145.69;100.00;52725.63;5114547;28;20221;-79
2023/01/23 04:43:42;;;;;;;6.70;3.17;;;;;;;-145.69;100.00;52674.13;5114396;28;20204;-79
2023/01/23 04:46:09;;;;;;;5.40;3.03;;;;;;;-145.69;100.00;52721.66;5114492;28;20209;-79
2023/01/23 04:48:36;;;;;;;5.27;3.00;;;;;;;-145.69;100.00;52693.94;5113360;28;20228;-79
2023/01/23 04:51:13;;;;;;;5.53;3.10;;;;;;;-145.69;100.00;52697.88;5114314;28;20961;-79
2023/01/23 04:53:39;;;;;;;4.93;2.90;;;;;;;-145.69;100.00;52705.81;5114312;28;20201;-79
2023/01/23 04:56:09;;;;;;;3.97;2.70;;;;;;;-145.69;100.00;52658.28;5114249;28;20204;-79
2023/01/23 04:58:42;;;;;;;5.03;2.90;;;;;;;-145.69;100.00;52733.53;5114422;28;20201;-79
2023/01/23 05:01:09;;;;;;;5.30;3.00;;;;;;;-145.69;100.00;52697.88;5114069;28;20197;-79
2023/01/23 05:03:36;;;;;;;6.50;3.20;;;;;;;-145.69;100.00;52729.56;5114014;28;20695;-79
2023/01/23 05:06:04;;;;;;;7.10;3.90;;;;;;;-145.69;100.00;52674.13;5113837;28;20209;-79
2023/01/23 05:08:32;;;;;;;5.27;3.20;;;;;;;-145.69;100.00;52687.97;5113328;28;20197;-79
2023/01/23 05:10:58;;;;;;;6.83;3.20;;;;;;;-145.69;100.00;52701.84;5114063;28;20213;-79
2023/01/23 05:13:25;;;;;;;5.97;3.13;;;;;;;-145.69;100.00;52749.38;5105526;28;20198;-78
2023/01/23 05:15:53;;;;;;;5.87;3.00;;;;;;;-145.69;100.00;52713.72;5093353;28;20205;-79
2023/01/23 05:18:20;;;;;;;5.80;3.20;;;;;;;-145.69;100.00;52711.75;5093480;28;20277;-82
2023/01/23 05:20:46;;;;;;;6.03;3.40;;;;;;;-145.69;100.00;52693.94;5113356;28;20617;-79
2023/01/23 05:23:14;;;;;;;4.77;2.77;;;;;;;-145.69;100.00;52717.69;5113705;28;20655;-79
2023/01/23 05:25:40;;;;;;;6.17;3.07;;;;;;;-145.69;100.00;52693.94;5113624;28;20201;-79
2023/01/23 05:28:07;;;;;;;5.47;2.97;;;;;;;-145.69;100.00;52672.13;5113948;28;20288;-77
2023/01/23 05:30:34;;;;;;;5.73;2.93;;;;;;;-145.69;100.00;52678.09;5113373;28;20197;-78
2023/01/23 05:33:03;;;;;;;6.53;3.67;;;;;;;-145.69;100.00;52713.72;5113861;28;20289;-79
2023/01/23 05:35:30;;;;;;;6.87;3.10;;;;;;;-145.69;100.00;52701.84;5113431;28;20666;-79
2023/01/23 05:37:57;;;;;;;5.60;3.00;;;;;;;-145.69;100.00;52717.69;5113291;28;20224;-79
2023/01/23 05:40:25;;;;;;;6.17;3.10;;;;;;;-145.69;100.00;52735.50;5113485;28;20204;-79
2023/01/23 05:42:51;;;;;;;7.50;3.57;;;;;;;-145.69;100.00;52713.72;5113280;28;20200;-79
2023/01/23 05:45:19;;;;;;;6.30;3.60;;;;;;;-145.69;100.00;52717.69;5113354;28;20329;-79
2023/01/23 05:47:46;;;;;;;6.57;3.43;;;;;;;-145.69;100.00;52709.78;5113524;28;20201;-79
2023/01/23 05:50:18;;;;;;;4.73;2.97;;;;;;;-145.69;100.00;52713.72;5113263;28;20288;-79
2023/01/23 05:52:45;;;;;;;6.17;2.90;;;;;;;-145.69;100.00;52749.38;5113300;28;20201;-79
2023/01/23 05:55:14;;;;;;;6.23;3.20;;;;;;;-145.69;100.00;52693.94;5113162;28;20201;-79
2023/01/23 05:57:42;;;;;;;5.13;3.10;;;;;;;-145.69;100.00;52697.88;5113389;28;20221;-80
2023/01/23 06:00:12;;;;;;;5.37;2.60;;;;;;;-145.69;100.00;52693.94;5113500;28;20205;-79
2023/01/23 06:02:39;;;;;;;5.00;2.87;;;;;;;-145.69;100.00;52729.56;5113158;28;20201;-79
2023/01/23 06:05:06;;;;;;;5.00;3.10;;;;;;;-145.69;100.00;52711.75;5112751;28;20200;-79
2023/01/23 06:07:36;;;;;;;5.17;3.00;;;;;;;-145.69;100.00;52691.94;5112879;28;20201;-79
2023/01/23 06:10:03;;;;;;;7.23;3.60;;;;;;;-145.69;100.00;52686.00;5112989;28;20197;-78
2023/01/23 06:12:31;;;;;;;6.53;3.30;;;;;;;-145.69;100.00;52723.63;5113362;28;20223;-79
2023/01/23 06:15:01;;;;;;;5.87;3.00;;;;;;;-145.69;100.00;52731.56;5113114;28;20201;-79
2023/01/23 06:17:27;;;;;;;5.27;3.13;;;;;;;-145.69;100.00;52705.81;5113081;28;20233;-78
2023/01/23 06:19:53;;;;;;;6.70;3.03;;;;;;;-145.69;100.00;52693.94;5116767;28;20590;-79
2023/01/23 06:22:22;;;;;;;6.63;3.53;;;;;;;-145.69;100.00;52719.66;5117154;28;20198;-79
2023/01/23 06:24:49;;;;;;;8.33;3.93;;;;;;;-145.69;100.00;52658.28;5117242;28;20225;-78
2023/01/23 06:27:15;;;;;;;7.07;4.10;;;;;;;-145.69;100.00;52695.91;5117289;28;20619;-78
2023/01/23 06:29:42;;;;;;;7.43;4.07;;;;;;;-145.69;100.00;52699.88;5117146;28;20201;-78
2023/01/23 06:32:09;;;;;;;7.53;3.77;;;;;;;-145.69;100.00;52672.13;5117147;28;20225;-78
2023/01/23 06:34:36;;;;;;;6.93;3.53;;;;;;;-145.69;100.00;52695.91;5116909;28;20197;-78
2023/01/23 06:37:03;;;;;;;5.93;3.80;;;;;;;-145.69;100.00;52709.78;5115564;28;20640;-79
2023/01/23 06:39:33;;;;;;;8.60;4.10;;;;;;;-145.69;100.00;52697.88;5117040;28;20208;-78
2023/01/23 06:42:00;;;;;;;7.00;4.10;;;;;;;-145.69;100.00;52717.69;5117093;28;20321;-79
2023/01/23 06:44:31;;;;;;;8.13;3.77;;;;;;;-145.69;100.00;52697.88;5116602;28;20228;-78
2023/01/23 06:46:57;;;;;;;8.40;4.37;;;;;;;-145.69;100.00;52691.94;5116932;28;20209;-78
2023/01/23 06:49:25;;;;;;;7.83;4.17;;;;;;;-145.69;100.00;52705.81;5116028;28;20552;-79
2023/01/23 06:51:54;;;;;;;9.07;4.50;;;;;;;-145.69;100.00;52680.06;5116827;28;20204;-78
2023/01/23 06:54:21;;;;;;;7.80;4.67;;;;;;;-145.69;100.00;52684.03;5116635;28;20283;-79
2023/01/23 06:56:48;;;;;;;9.60;5.00;;;;;;;-145.69;100.00;52711.75;5116473;28;20201;-78
2023/01/23 06:59:15;;;;;;;8.43;4.23;;;;;;;-145.69;100.00;52723.63;5116496;28;20194;-78
2023/01/23 07:01:42;;;;;;;10.90;5.20;;;;;;;-145.69;100.00;52711.75;5116535;28;20198;-78
2023/01/23 07:04:08;;;;;;;11.87;4.83;;;;;;;-145.69;100.00;52709.78;5116037;28;20618;-78
2023/01/23 07:06:36;;;;;;;9.33;4.83;;;;;;;-145.69;100.00;52705.81;5116540;28;20623;-79
2023/01/23 07:09:03;;;;;;;10.97;4.87;;;;;;;-145.69;100.00;52684.03;5116442;28;20216;-78
2023/01/23 07:11:29;;;;;;;10.83;5.10;;;;;;;-145.69;100.00;52713.72;5116388;28;20205;-78
2023/01/23 07:13:56;;;;;;;11.93;5.57;;;;;;;-145.69;100.00;52658.28;5114993;28;20237;-78
2023/01/23 07:16:23;;;;;;;8.83;4.63;;;;;;;-145.69;100.00;52733.53;5115812;28;20537;-78
2023/01/23 07:18:50;;;;;;;10.70;5.07;;;;;;;-145.69;100.00;52719.66;5115532;28;20561;-78
2023/01/23 07:21:16;;;;;;;10.10;5.20;;;;;;;-145.69;100.00;52684.03;5115981;28;20198;-78
2023/01/23 07:23:44;;;;;;;9.47;4.67;;;;;;;-145.69;100.00;52705.81;5109692;28;20556;-78
2023/01/23 07:26:12;;;;;;;9.47;5.10;;;;;;;-145.69;100.00;52713.72;5095767;28;20205;-78
2023/01/23 07:28:39;;;;;;;9.17;5.07;;;;;;;-145.69;100.00;52674.13;5095514;28;20657;-79
2023/01/23 07:31:06;;;;;;;10.90;5.07;;;;;;;-145.69;100.00;52709.78;5094587;28;20202;-78
2023/01/23 07:33:32;;;;;;;9.57;4.73;;;;;;;-145.69;100.00;52684.03;5107301;28;20197;-79
2023/01/23 07:35:59;;;;;;;10.40;5.37;;;;;;;-145.69;100.00;52699.88;5115270;28;20559;-79
2023/01/23 07:38:25;;;;;;;10.90;5.03;;;;;;;-145.69;100.00;52703.81;5115464;28;20228;-79
2023/01/23 07:40:58;;;;;;;10.40;5.23;;;;;;;-145.69;100.00;52674.13;5115848;27;20201;-79
2023/01/23 07:43:24;;;;;;;9.83;5.30;;;;;;;-145.69;100.00;52693.94;5115813;28;20193;-79
2023/01/23 07:45:51;;;;;;;11.53;5.23;;;;;;;-145.69;100.00;52693.94;5115396;28;20244;-79
2023/01/23 07:48:20;;;;;;;10.60;5.30;;;;;;;-145.69;100.00;52695.91;5115364;28;20648;-79
2023/01/23 07:50:46;;;;;;;9.80;5.10;;;;;;;-145.69;100.00;52678.09;5115017;28;20676;-79
2023/01/23 07:53:15;;;;;;;10.23;4.87;;;;;;;-145.69;100.00;52705.81;5115488;28;20197;-83
2023/01/23 07:55:42;;;;;;;10.00;5.20;;;;;;;-145.69;100.00;52686.00;5115345;28;20193;-79
2023/01/23 07:58:12;;;;;;;12.13;5.40;;;;;;;-145.69;100.00;52737.50;5115451;28;20232;-79
2023/01/23 08:00:40;;;;;;;10.77;5.40;;;;;;;-145.69;100.00;52705.81;5115679;27;20201;-79
2023/01/23 08:03:07;;;;;;;11.60;5.17;;;;;;;-145.69;100.00;52697.88;5114973;28;20208;-79
2023/01/23 08:05:33;;;;;;;12.57;6.10;;;;;;;-145.69;100.00;52654.31;5115250;28;20193;-79
2023/01/23 08:07:59;;;;;;;10.37;5.27;;;;;;;-145.69;100.00;52691.94;5115231;28;20205;-79
2023/01/23 08:10:26;;;;;;;12.37;5.70;;;;;;;-145.69;100.00;52697.88;5115164;28;20205;-79
2023/01/23 08:12:52;;;;;;;14.53;6.77;;;;;;;-145.69;100.00;52709.78;5114400;28;20198;-78
2023/01/23 08:15:20;;;;;;;13.47;6.60;;;;;;;-145.69;100.00;52686.00;5115191;28;20205;-78
2023/01/23 08:17:47;;;;;;;10.93;5.77;;;;;;;-145.69;100.00;52723.63;5115135;28;20229;-79
2023/01/23 08:20:14;;;;;;;15.23;6.63;;;;;;;-145.69;100.00;52686.00;5114703;28;20205;-79
2023/01/23 08:22:40;;;;;;;13.10;6.10;;;;;;;-145.69;100.00;52666.19;5114900;28;20290;-79
2023/01/23 08:25:08;;;;;;;14.97;6.50;;;;;;;-145.69;100.00;52707.78;5114986;28;20252;-79
2023/01/23 08:27:34;;;;;;;14.03;6.40;;;;;;;-145.69;100.00;52674.13;5114886;28;20212;-79
2023/01/23 08:30:01;;;;;;;13.20;6.60;;;;;;;-145.69;100.00;52674.13;5114860;28;20678;-78
2023/01/23 08:32:29;;;;;;;13.33;6.13;;;;;;;-145.69;100.00;52682.03;5114535;28;20185;-79
2023/01/23 08:34:55;;;;;;;14.27;6.63;;;;;;;-145.69;100.00;52689.97;5114449;28;20205;-79
2023/01/23 08:37:22;;;;;;;14.90;6.47;;;;;;;-145.69;100.00;52680.06;5113384;28;20208;-80
2023/01/23 08:39:48;;;;;;;14.73;7.23;;;;;;;-145.69;100.00;52733.53;5114169;28;20198;-78
2023/01/23 08:42:15;;;;;;;12.80;6.87;;;;;;;-145.69;100.00;52713.72;5114749;28;20209;-79
2023/01/23 08:44:41;;;;;;;11.40;6.17;;;;;;;-145.69;100.00;52713.72;5114428;28;20615;-79
2023/01/23 08:47:08;;;;;;;11.13;6.53;;;;;;;-145.69;100.00;52691.94;5114566;28;20197;-79
2023/01/23 08:49:36;;;;;;;12.27;6.33;;;;;;;-145.69;100.00;52701.84;5114214;28;20201;-80
2023/01/23 08:52:04;;;;;;;13.80;5.53;;;;;;;-145.69;100.00;52686.00;5114366;28;20202;-79
2023/01/23 08:54:31;;;;;;;15.63;5.93;;;;;;;-145.69;100.00;52662.22;5114147;28;20309;-79
2023/01/23 08:56:57;;;;;;;10.47;5.83;;;;;;;-145.69;100.00;52691.94;5114539;28;20197;-79
2023/01/23 08:59:24;;;;;;;9.93;5.07;;;;;;;-145.69;100.00;52711.75;5114226;28;20236;-79
2023/01/23 09:01:50;;;;;;;9.30;5.17;;;;;;;-145.69;100.00;52686.00;5114129;28;20197;-79
2023/01/23 09:04:17;;;;;;;10.47;5.33;;;;;;;-145.69;100.00;52662.22;5113575;28;20676;-78
2023/01/23 09:06:45;;;;;;;9.23;5.20;;;;;;;-145.69;100.00;52670.16;5113707;27;20189;-80
2023/01/23 09:09:11;;;;;;;10.60;5.17;;;;;;;-145.69;100.00;52709.78;5113881;28;20201;-79
2023/01/23 09:11:38;;;;;;;11.20;5.30;;;;;;;-145.69;100.00;52682.03;5113826;28;20652;-78
2023/01/23 09:14:04;;;;;;;7.60;4.80;;;;;;;-145.69;100.00;52674.13;5112791;28;20201;-79
2023/01/23 09:16:31;;;;;;;10.60;5.13;;;;;;;-145.69;100.00;52703.81;5114004;28;20208;-79
2023/01/23 09:18:57;;;;;;;9.83;4.70;;;;;;;-145.69;100.00;52707.78;5113731;28;20228;-79
2023/01/23 09:21:24;;;;;;;12.00;5.13;;;;;;;-145.69;100.00;52707.78;5113768;28;20204;-80
2023/01/23 09:23:51;;;;;;;9.60;5.20;;;;;;;-145.69;100.00;52684.03;5114036;28;20208;-83
2023/01/23 09:26:18;;;;;;;10.40;5.30;;;;;;;-145.69;100.00;52678.09;5111917;28;20213;-80
2023/01/23 09:28:44;;;;;;;10.90;5.30;;;;;;;-145.69;100.00;52717.69;5094251;28;20224;-79
2023/01/23 09:31:13;;;;;;;10.70;5.17;;;;;;;-145.69;100.00;52713.72;5093405;28;20225;-79
2023/01/23 09:33:40;;;;;;;9.73;4.97;;;;;;;-145.69;100.00;52684.03;5106865;28;20200;-79
2023/01/23 09:36:08;;;;;;;10.33;5.57;;;;;;;-145.69;100.00;52717.69;5113572;28;20206;-79
2023/01/23 09:38:35;;;;;;;9.50;5.10;;;;;;;-145.69;100.00;52666.19;5113247;28;20232;-79
2023/01/23 09:41:11;;;;;;;8.07;4.87;;;;;;;-145.69;100.00;52670.16;5113301;28;20201;-79
2023/01/23 09:43:44;;;;;;;10.07;5.03;;;;;;;-145.69;100.00;52695.91;5107295;28;20659;-80
2023/01/23 09:46:17;;;;;;;10.87;4.97;;;;;;;-145.69;100.00;52682.03;5113854;28;20208;-79
2023/01/23 09:48:46;;;;;;;14.93;6.63;;;;;;;-145.69;100.00;52719.66;5113304;28;20197;-79
2023/01/23 09:51:20;;;;;;;11.53;5.63;;;;;;;-145.69;100.00;52705.81;5113817;28;20201;-80
2023/01/23 09:53:46;;;;;;;17.70;6.90;;;;;;;-145.69;100.00;52701.84;5113009;28;20208;-78
2023/01/23 09:56:27;;;;;;;38.60;12.30;;;;;;;-145.69;100.00;52680.06;5113443;28;20211;-78
2023/01/23 09:59:00;;;;;;;11.17;6.60;;;;;;;-145.69;100.00;52684.03;5113122;28;20232;-78
2023/01/23 10:01:29;;;;;;;11.13;6.10;;;;;;;-145.69;100.00;52715.72;5113239;28;20201;-79
2023/01/23 10:03:57;;;;;;;12.27;5.83;;;;;;;-145.69;100.00;52705.81;5112731;28;20197;-78
2023/01/23 10:06:26;;;;;;;14.00;5.97;;;;;;;-145.69;100.00;52684.03;5113382;28;20204;-78
2023/01/23 10:09:11;;;;;;;13.80;6.60;;;;;;;-145.69;100.00;52703.81;5113597;28;20596;-78
2023/01/23 10:11:52;;;;;;;14.70;6.63;;;;;;;-145.69;100.00;52691.94;5112947;28;20201;-79
2023/01/23 10:14:39;;;;;;;13.03;6.10;;;;;;;-145.69;100.00;52693.94;5113393;28;20208;-79
2023/01/23 10:17:18;;;;;;;17.57;7.60;;;;;;;-145.69;100.00;52697.88;5113194;28;20205;-79
2023/01/23 10:19:57;;;;;;;12.07;5.87;;;;;;;-145.69;100.00;52682.03;5112947;28;20221;-78
2023/01/23 10:22:34;;;;;;;12.67;6.27;;;;;;;-145.69;100.00;52693.94;5111482;28;20201;-79
2023/01/23 10:25:09;;;;;;;11.70;6.17;;;;;;;-145.69;100.00;52676.09;5105245;28;20201;-76
2023/01/23 10:27:41;;;;;;;14.00;5.90;;;;;;;-145.69;100.00;52686.00;5113128;28;20584;-78
2023/01/23 10:30:20;;;;;;;11.67;5.90;;;;;;;-145.69;100.00;52674.13;5112531;28;20201;-78
2023/01/23 10:32:51;;;;;;;11.60;5.90;;;;;;;-145.69;100.00;52687.97;5111778;28;20201;-78
2023/01/23 10:35:22;;;;;;;15.83;6.57;;;;;;;-145.69;100.00;52697.88;5112820;28;20232;-79
2023/01/23 10:37:56;;;;;;;12.60;6.23;;;;;;;-145.69;100.00;52670.16;5112817;28;20560;-77
2023/01/23 10:43:12;;;;;;;11.37;5.83;;;;;;;-145.69;100.00;52684.03;5113561;27;20247;-77
2023/01/23 10:45:40;;;;;;;11.93;5.73;;;;;;;-145.69;100.00;52687.97;5112630;28;20197;-78
2023/01/23 10:48:29;;;;;;;12.60;5.67;;;;;;;-145.69;100.00;52686.00;5112827;28;20197;-78
2023/01/23 10:50:55;;;;;;;10.03;5.60;;;;;;;-145.69;100.00;52705.81;5112744;28;20251;-79
2023/01/23 10:53:23;;;;;;;15.43;6.73;;;;;;;-145.69;100.00;52684.03;5112561;28;20571;-77
2023/01/23 10:55:52;;;;;;;16.00;7.70;;;;;;;-145.69;100.00;52687.97;5112760;28;20197;-77
2023/01/23 10:58:31;;;;;;;14.67;6.37;;;;;;;-145.69;100.00;52680.06;5112675;28;20225;-78
2023/01/23 11:00:58;;;;;;;10.17;5.43;;;;;;;-145.69;100.00;52674.13;5112280;28;20197;-77
2023/01/23 11:03:28;;;;;;;14.47;7.03;;;;;;;-145.69;100.00;52668.19;5112547;28;20190;-78
2023/01/23 11:05:57;;;;;;;14.13;7.20;;;;;;;-145.69;100.00;52709.78;5114477;28;20205;-77
2023/01/23 11:08:26;;;;;;;12.67;6.07;;;;;;;-145.69;100.00;52699.88;5116367;28;20209;-78
2023/01/23 11:10:53;;;;;;;17.57;7.93;;;;;;;-145.69;100.00;52693.94;5116000;28;20197;-76
2023/01/23 11:13:29;;;;;;;19.17;9.50;;;;;;;-145.69;100.00;52701.84;5116088;28;20193;-77
2023/01/23 11:15:56;;;;;;;21.43;9.77;;;;;;;-145.69;100.00;52680.06;5116222;28;20621;-77
2023/01/23 11:18:34;;;;;;;11.83;6.23;;;;;;;-145.69;100.00;52656.28;5115825;28;20695;-77
2023/01/23 11:21:01;;;;;;;13.43;6.23;;;;;;;-145.69;100.00;52666.19;5116212;28;20193;-77